Time;durP1;ratioP1;P1;durP2;ratioP2;P2;SDS_P1;SDS_P2;PMS_P1;PMS_P2;Temp;Humidity;BMP_temperature;BMP_pressure;BME280_temperature;BME280_humidity;BME280_pressure;Samples;Min_cycle;Max_cycle;Signal;HPM_P1;HPM_P2
2021/03/17 00:01:10;;;;;;;13.50;1.45;;;;;;;3.17;86.00;102011.78;6196862;28;20042;-70
2021/03/17 00:04:11;;;;;;;8.93;1.35;;;;;;;3.12;87.35;102021.31;6197449;28;20116;-70
2021/03/17 00:07:12;;;;;;;7.53;1.30;;;;;;;3.28;86.56;102016.97;6197286;28;20097;-70
2021/03/17 00:10:14;;;;;;;9.40;1.45;;;;;;;3.17;86.23;102027.38;6197459;28;20058;-71
2021/03/17 00:13:16;;;;;;;8.15;1.55;;;;;;;3.24;87.07;102010.06;6196955;28;20105;-70
2021/03/17 00:16:17;;;;;;;1.92;0.80;;;;;;;3.19;86.56;102007.47;6195885;28;20046;-70
2021/03/17 00:19:17;;;;;;;7.80;2.00;;;;;;;3.02;87.93;102011.81;6197212;28;20085;-70
2021/03/17 00:22:19;;;;;;;7.15;1.80;;;;;;;3.05;87.77;102011.84;6197161;28;20073;-70
2021/03/17 00:25:21;;;;;;;7.00;1.80;;;;;;;3.16;87.27;102009.19;6197531;28;20089;-70
2021/03/17 00:28:23;;;;;;;7.43;1.35;;;;;;;3.21;86.63;102016.09;6202082;28;20058;-70
2021/03/17 00:31:24;;;;;;;6.07;1.50;;;;;;;3.05;87.54;102030.88;6202194;28;20050;-70
2021/03/17 00:34:25;;;;;;;17.83;2.53;;;;;;;3.08;88.18;102024.78;6202314;28;20133;-70
2021/03/17 00:37:27;;;;;;;8.77;1.88;;;;;;;3.03;87.91;102013.56;6202336;28;20132;-70
2021/03/17 00:40:28;;;;;;;9.52;1.67;;;;;;;3.04;88.14;102018.75;6202073;28;20053;-70
2021/03/17 00:43:29;;;;;;;15.18;1.90;;;;;;;3.09;88.17;102021.34;6202086;28;20054;-70
2021/03/17 00:46:30;;;;;;;7.75;1.90;;;;;;;2.93;89.10;102023.09;6201959;28;20443;-70
2021/03/17 00:49:31;;;;;;;9.27;2.22;;;;;;;3.04;89.24;102021.38;6201838;28;20057;-70
2021/03/17 00:52:32;;;;;;;13.13;1.70;;;;;;;2.99;89.80;102020.47;6201802;28;20051;-70
2021/03/17 00:55:33;;;;;;;10.13;1.92;;;;;;;2.93;89.64;102012.72;6201539;28;20427;-70
2021/03/17 00:58:35;;;;;;;12.10;1.98;;;;;;;2.95;89.85;102015.28;6201623;28;20054;-70
2021/03/17 01:01:36;;;;;;;15.65;2.03;;;;;;;2.99;89.84;102010.09;6201425;28;20053;-70
2021/03/17 01:04:37;;;;;;;9.90;1.95;;;;;;;3.01;90.04;102010.97;6201594;28;20419;-71
2021/03/17 01:07:38;;;;;;;10.88;1.65;;;;;;;3.23;88.00;102006.59;6201560;28;20563;-70
2021/03/17 01:10:42;;;;;;;8.88;1.75;;;;;;;3.01;88.37;102013.56;6201396;28;20525;-70
2021/03/17 01:13:44;;;;;;;8.32;1.90;;;;;;;2.99;88.99;102017.03;6201371;28;20050;-70
2021/03/17 01:16:45;;;;;;;7.50;1.30;;;;;;;2.98;88.87;102012.69;6201356;28;20046;-70
2021/03/17 01:19:46;;;;;;;15.27;1.80;;;;;;;3.40;87.40;102021.25;6200903;28;20164;-70
2021/03/17 01:22:47;;;;;;;9.80;1.52;;;;;;;3.36;87.10;102014.34;6201202;28;20069;-70
2021/03/17 01:25:48;;;;;;;7.55;1.42;;;;;;;3.04;88.80;102018.75;6201135;28;20053;-70
2021/03/17 01:28:50;;;;;;;9.98;1.73;;;;;;;3.28;87.59;102025.63;6201242;28;20466;-70
2021/03/17 01:31:51;;;;;;;16.52;1.58;;;;;;;3.08;88.57;102030.00;6200778;28;20061;-70
2021/03/17 01:34:52;;;;;;;6.78;1.45;;;;;;;2.91;89.96;102027.44;6200949;28;20061;-70
2021/03/17 01:37:56;;;;;;;10.10;1.98;;;;;;;3.05;88.72;102025.69;6200187;28;20471;-70
2021/03/17 01:40:57;;;;;;;9.93;2.00;;;;;;;3.07;88.98;102025.66;6200577;28;20054;-70
2021/03/17 01:43:59;;;;;;;12.07;2.25;;;;;;;3.12;87.21;102029.13;6200921;28;20046;-70
2021/03/17 01:47:00;;;;;;;13.15;2.38;;;;;;;3.15;87.58;102021.34;6200549;28;20467;-70
2021/03/17 01:50:01;;;;;;;8.65;2.05;;;;;;;2.99;88.17;102017.88;6200518;28;20133;-70
2021/03/17 01:53:05;;;;;;;11.90;2.38;;;;;;;3.07;87.73;102025.66;6200137;28;20050;-70
2021/03/17 01:56:07;;;;;;;13.90;2.75;;;;;;;2.95;88.11;102021.38;6200191;28;20054;-70
2021/03/17 01:59:09;;;;;;;13.45;2.70;;;;;;;2.93;87.70;102024.81;6200190;28;20050;-70
2021/03/17 02:02:10;;;;;;;11.82;2.83;;;;;;;2.85;88.69;102019.63;6200293;28;20057;-70
2021/03/17 02:05:13;;;;;;;11.02;2.67;;;;;;;2.77;88.79;102022.25;6200259;28;20061;-70
2021/03/17 02:08:17;;;;;;;8.02;2.53;;;;;;;2.88;89.10;102013.59;6200268;28;20050;-70
2021/03/17 02:11:18;;;;;;;12.82;2.78;;;;;;;2.77;88.65;102019.66;6200013;28;20109;-70
2021/03/17 02:14:38;;;;;;;10.82;2.55;;;;;;;2.84;88.06;102019.66;6199889;28;20454;-70
2021/03/17 02:17:43;;;;;;;12.13;2.85;;;;;;;2.79;88.37;102015.31;6199924;28;20046;-70
2021/03/17 02:21:08;;;;;;;7.18;2.53;;;;;;;2.91;88.05;102008.41;6199480;28;20502;-70
2021/03/17 02:24:17;;;;;;;11.25;2.78;;;;;;;2.79;87.93;102004.94;6199786;28;20054;-70
2021/03/17 02:27:44;;;;;;;17.35;3.15;;;;;;;2.91;86.90;102022.25;6199837;28;20430;-70
2021/03/17 02:31:05;;;;;;;20.55;3.47;;;;;;;2.96;87.07;102015.31;6199348;28;20054;-70
2021/03/17 02:34:09;;;;;;;12.48;2.78;;;;;;;2.88;87.08;102022.25;6199533;28;20495;-70
2021/03/17 02:37:14;;;;;;;9.65;3.03;;;;;;;2.77;88.19;102022.25;6199564;28;20050;-70
2021/03/17 02:40:21;;;;;;;14.02;3.40;;;;;;;2.74;88.16;102018.78;6199328;28;20427;-70
2021/03/17 02:43:25;;;;;;;13.35;3.15;;;;;;;2.86;87.54;102012.72;6199383;28;20061;-70
2021/03/17 02:46:28;;;;;;;13.52;2.53;;;;;;;2.92;86.81;102011.00;6199144;28;20133;-70
2021/03/17 02:49:36;;;;;;;7.13;2.25;;;;;;;2.85;86.25;102013.56;6198168;28;20046;-70
2021/03/17 02:52:40;;;;;;;10.18;1.92;;;;;;;2.67;87.97;102017.91;6199021;28;20101;-70
2021/03/17 02:55:45;;;;;;;5.35;1.98;;;;;;;2.73;86.40;102015.34;6198807;28;20137;-70
2021/03/17 02:58:49;;;;;;;8.65;1.80;;;;;;;2.60;87.02;102023.13;6198754;28;20415;-70
2021/03/17 03:01:52;;;;;;;6.18;1.88;;;;;;;2.54;87.73;102023.97;6198612;28;20535;-70
2021/03/17 03:04:56;;;;;;;7.22;1.50;;;;;;;2.37;88.25;102013.59;6198900;28;20050;-70
2021/03/17 03:08:00;;;;;;;7.28;1.95;;;;;;;2.40;88.50;102015.31;6198701;28;20419;-69
2021/03/17 03:11:02;;;;;;;7.22;1.58;;;;;;;2.48;88.92;102013.59;6198434;28;20490;-69
2021/03/17 03:14:05;;;;;;;7.32;1.10;;;;;;;2.50;88.16;102017.94;6198544;28;20050;-70
2021/03/17 03:17:07;;;;;;;8.80;1.42;;;;;;;2.42;87.45;102016.19;6198679;28;20189;-70
2021/03/17 03:20:16;;;;;;;9.73;1.35;;;;;;;2.32;89.37;102019.63;6198243;28;20053;-70
2021/03/17 03:23:17;;;;;;;6.95;1.20;;;;;;;2.48;87.19;102014.47;6197961;28;20057;-70
2021/03/17 03:26:19;;;;;;;7.70;1.45;;;;;;;2.36;88.25;102014.44;6198267;28;20046;-70
2021/03/17 03:29:20;;;;;;;12.55;3.97;;;;;;;2.33;88.32;102021.38;6198408;28;20054;-70
2021/03/17 03:32:22;;;;;;;6.95;1.40;;;;;;;2.28;87.72;102014.44;6197990;28;20105;-70
2021/03/17 03:35:24;;;;;;;10.52;1.42;;;;;;;2.52;86.98;102023.13;6198381;28;20058;-70
2021/03/17 03:38:25;;;;;;;4.43;1.10;;;;;;;2.44;87.25;102024.84;6198094;28;20080;-70
2021/03/17 03:41:27;;;;;;;5.68;1.55;;;;;;;2.44;86.49;102019.63;6198042;28;20046;-70
2021/03/17 03:44:28;;;;;;;8.57;1.40;;;;;;;2.48;86.98;102026.56;6198094;28;20061;-70
2021/03/17 03:47:29;;;;;;;5.78;0.98;;;;;;;2.27;87.08;102020.50;6198169;28;20046;-70
2021/03/17 03:50:36;;;;;;;13.20;1.58;;;;;;;2.45;86.65;102032.63;6197880;28;20230;-70
2021/03/17 03:53:52;;;;;;;5.38;1.13;;;;;;;2.44;86.99;102022.22;6197692;28;20050;-70
2021/03/17 03:57:00;;;;;;;8.18;1.35;;;;;;;2.43;87.36;102029.16;6197566;28;20058;-70
2021/03/17 04:00:04;;;;;;;11.07;3.20;;;;;;;2.34;87.28;102018.78;6197719;28;20427;-70
2021/03/17 04:03:08;;;;;;;6.63;1.38;;;;;;;2.30;87.26;102019.63;6197399;28;20530;-70
2021/03/17 04:06:12;;;;;;;11.98;2.15;;;;;;;2.42;86.78;102030.03;6197926;28;20057;-70
2021/03/17 04:09:14;;;;;;;7.60;1.55;;;;;;;2.24;87.69;102030.00;6197552;28;20065;-70
2021/03/17 04:12:18;;;;;;;11.23;1.60;;;;;;;2.30;87.32;102032.59;6197750;28;20050;-70
2021/03/17 04:15:21;;;;;;;11.15;1.60;;;;;;;2.16;87.28;102027.38;6197613;28;20565;-70
2021/03/17 04:18:25;;;;;;;4.10;1.20;;;;;;;2.31;87.80;102033.47;6197647;28;20050;-70
2021/03/17 04:21:29;;;;;;;8.00;1.45;;;;;;;2.27;87.37;102028.28;6197577;28;20050;-70
2021/03/17 04:24:32;;;;;;;10.57;1.50;;;;;;;2.49;86.57;102033.47;6197651;28;20050;-70
2021/03/17 04:27:34;;;;;;;6.68;1.65;;;;;;;2.33;88.01;102040.41;6197705;28;20051;-70
2021/03/17 04:30:35;;;;;;;4.32;1.60;;;;;;;2.35;88.81;102032.59;6197275;28;20054;-70
2021/03/17 04:33:38;;;;;;;10.95;2.85;;;;;;;2.34;88.93;102036.94;6197434;28;20133;-70
2021/03/17 04:36:40;;;;;;;10.35;1.90;;;;;;;2.26;89.64;102036.91;6197304;28;20042;-70
2021/03/17 04:39:42;;;;;;;6.07;2.10;;;;;;;2.47;89.04;102046.47;6197398;28;20082;-70
2021/03/17 04:42:44;;;;;;;13.35;2.47;;;;;;;2.42;89.53;102039.53;6197233;28;20057;-70
2021/03/17 04:45:46;;;;;;;5.38;2.05;;;;;;;2.30;90.29;102040.38;6197195;28;20081;-70
2021/03/17 04:48:48;;;;;;;9.85;2.53;;;;;;;2.25;89.98;102032.59;6197252;28;20046;-70
2021/03/17 04:51:51;;;;;;;20.63;2.28;;;;;;;2.56;89.20;102042.16;6197145;28;20054;-70
2021/03/17 04:54:53;;;;;;;7.82;2.35;;;;;;;2.21;89.98;102045.53;6197034;28;20046;-70
2021/03/17 04:57:56;;;;;;;9.85;2.72;;;;;;;2.29;90.60;102038.66;6197008;28;20466;-70
2021/03/17 05:00:58;;;;;;;9.15;2.25;;;;;;;2.40;90.00;102049.91;6196882;28;20054;-70
2021/03/17 05:04:00;;;;;;;13.23;2.42;;;;;;;2.37;89.35;102046.47;6197134;28;20050;-70
2021/03/17 05:07:03;;;;;;;5.03;2.20;;;;;;;2.26;90.77;102047.28;6197035;28;20050;-70
2021/03/17 05:10:05;;;;;;;10.75;2.35;;;;;;;2.27;90.02;102050.75;6196905;28;20073;-70
2021/03/17 05:13:08;;;;;;;7.18;2.40;;;;;;;2.49;90.17;102046.44;6197584;28;20057;-69
2021/03/17 05:16:12;;;;;;;12.38;2.38;;;;;;;2.40;89.77;102052.50;6200571;28;20054;-70
2021/03/17 05:19:15;;;;;;;12.73;3.25;;;;;;;2.38;89.19;102048.19;6194942;28;20049;-69
2021/03/17 05:22:19;;;;;;;9.95;2.33;;;;;;;2.25;90.32;102048.16;6200885;28;20054;-70
2021/03/17 05:25:22;;;;;;;11.95;3.08;;;;;;;2.40;89.08;102052.50;6201294;28;20061;-70
2021/03/17 05:28:25;;;;;;;12.02;2.80;;;;;;;2.31;89.49;102051.63;6200810;28;20053;-70
2021/03/17 05:31:28;;;;;;;8.82;2.05;;;;;;;2.36;88.11;102055.06;6200964;28;20046;-69
2021/03/17 05:34:29;;;;;;;10.85;2.20;;;;;;;2.29;88.49;102059.41;6200754;28;20074;-70
2021/03/17 05:37:30;;;;;;;10.45;2.15;;;;;;;2.41;87.67;102056.84;6201044;28;20050;-69
2021/03/17 05:40:32;;;;;;;15.70;2.20;;;;;;;2.35;87.82;102059.41;6200639;28;20061;-70
2021/03/17 05:43:35;;;;;;;13.73;2.33;;;;;;;2.56;86.67;102062.91;6200595;28;20046;-69
2021/03/17 05:46:36;;;;;;;7.60;1.58;;;;;;;2.35;88.50;102063.72;6200650;28;20049;-70
2021/03/17 05:49:38;;;;;;;7.85;2.10;;;;;;;2.45;87.52;102068.06;6200706;28;20053;-69
2021/03/17 05:52:41;;;;;;;14.30;2.35;;;;;;;2.40;87.85;102073.25;6199770;28;20422;-70
2021/03/17 05:55:43;;;;;;;16.45;3.17;;;;;;;2.31;88.69;102069.78;6200019;28;20051;-71
2021/03/17 05:58:45;;;;;;;9.90;1.85;;;;;;;2.33;89.17;102068.94;6200087;28;20062;-69
2021/03/17 06:01:46;;;;;;;12.90;2.83;;;;;;;2.37;88.37;102072.41;6200122;28;20108;-70
2021/03/17 06:04:49;;;;;;;12.35;2.22;;;;;;;2.36;89.70;102075.81;6200474;28;20050;-69
2021/03/17 06:07:59;;;;;;;14.93;2.00;;;;;;;2.49;88.51;102080.19;6200033;28;20057;-70
2021/03/17 06:11:01;;;;;;;9.35;2.10;;;;;;;2.60;86.69;102077.63;6199743;28;20517;-69
2021/03/17 06:14:07;;;;;;;9.48;1.60;;;;;;;2.44;88.04;102077.56;6200087;28;20046;-70
2021/03/17 06:17:12;;;;;;;14.60;2.30;;;;;;;2.51;87.60;102083.66;6200053;28;20053;-70
2021/03/17 06:20:15;;;;;;;6.00;1.70;;;;;;;2.53;88.30;102085.38;6199673;28;20426;-70
2021/03/17 06:23:17;;;;;;;6.20;1.90;;;;;;;2.42;88.75;102086.25;6199568;28;20047;-70
2021/03/17 06:26:18;;;;;;;9.05;2.03;;;;;;;2.46;88.56;102083.66;6199531;28;20498;-69
2021/03/17 06:29:19;;;;;;;11.65;3.10;;;;;;;2.71;87.01;102084.53;6199615;28;20042;-70
2021/03/17 06:32:21;;;;;;;7.97;1.75;;;;;;;2.53;86.79;102093.16;6199221;28;20050;-70
2021/03/17 06:35:24;;;;;;;9.45;1.70;;;;;;;2.58;86.00;102087.97;6192914;28;20051;-70
2021/03/17 06:38:26;;;;;;;8.85;1.67;;;;;;;2.64;86.60;102094.94;6186442;28;20100;-70
2021/03/17 06:41:41;;;;;;;5.40;1.73;;;;;;;2.53;87.09;102095.75;6178913;28;20492;-69
2021/03/17 06:44:55;;;;;;;13.43;1.95;;;;;;;2.63;87.42;102086.25;6182973;28;20047;-71
2021/03/17 06:47:56;;;;;;;18.63;1.95;;;;;;;2.76;86.30;102094.91;6186765;28;20504;-69
2021/03/17 06:51:05;;;;;;;7.72;1.83;;;;;;;2.61;86.86;102098.38;6178420;28;20051;-69
2021/03/17 06:54:10;;;;;;;10.90;1.67;;;;;;;2.68;86.13;102094.94;6174976;28;20043;-70
2021/03/17 06:57:25;;;;;;;5.93;1.63;;;;;;;2.63;86.03;102090.56;6174604;28;20050;-70
2021/03/17 07:00:31;;;;;;;8.25;1.83;;;;;;;2.62;86.97;102089.72;6174856;28;20061;-70
2021/03/17 07:03:32;;;;;;;13.02;1.85;;;;;;;2.75;86.31;102093.19;6174561;28;20102;-70
2021/03/17 07:06:34;;;;;;;14.75;2.20;;;;;;;2.72;86.70;102090.59;6174777;28;20133;-70
2021/03/17 07:09:37;;;;;;;8.10;1.88;;;;;;;2.95;84.68;102093.19;6174552;28;20101;-70
2021/03/17 07:12:38;;;;;;;6.93;1.70;;;;;;;2.99;84.30;102097.50;6174499;28;20097;-70
2021/03/17 07:15:40;;;;;;;9.98;1.58;;;;;;;2.95;85.46;102108.75;6174540;28;20051;-70
2021/03/17 07:18:41;;;;;;;11.00;1.52;;;;;;;3.00;84.29;102109.66;6174332;28;20073;-71
2021/03/17 07:21:42;;;;;;;12.35;2.72;;;;;;;2.95;85.08;102107.06;6174325;28;20496;-69
2021/03/17 07:24:46;;;;;;;7.40;1.48;;;;;;;2.96;84.24;102102.72;6174600;28;20051;-70
2021/03/17 07:27:56;;;;;;;9.52;1.70;;;;;;;3.12;83.76;102112.22;6174194;28;20471;-70
2021/03/17 07:31:13;;;;;;;9.65;2.20;;;;;;;3.16;81.68;102105.31;6174255;28;20054;-70
2021/03/17 07:34:16;;;;;;;9.60;1.30;;;;;;;3.12;82.15;102114.81;6174110;28;20058;-70
2021/03/17 07:37:17;;;;;;;6.78;1.48;;;;;;;3.19;80.12;102111.38;6173373;28;20073;-70
2021/03/17 07:40:19;;;;;;;7.85;1.70;;;;;;;3.17;80.26;102110.50;6174064;28;20050;-69
2021/03/17 07:43:25;;;;;;;23.33;3.58;;;;;;;3.28;80.28;102106.16;6173705;28;20058;-76
2021/03/17 07:46:27;;;;;;;9.85;1.40;;;;;;;3.40;77.76;102113.06;6174110;28;20062;-70
2021/03/17 07:49:29;;;;;;;6.78;1.33;;;;;;;3.29;78.25;102113.09;6173694;28;20427;-70
2021/03/17 07:52:31;;;;;;;9.93;1.65;;;;;;;3.39;77.06;102111.34;6173699;28;20051;-69
2021/03/17 07:55:34;;;;;;;7.55;1.25;;;;;;;3.59;75.60;102113.91;6173468;28;20503;-70
2021/03/17 07:58:37;;;;;;;14.15;1.50;;;;;;;3.63;74.07;102110.41;6173574;28;20102;-69
2021/03/17 08:01:39;;;;;;;5.05;1.40;;;;;;;3.46;76.18;102113.06;6174165;28;20097;-69
2021/03/17 08:04:42;;;;;;;12.80;1.40;;;;;;;3.52;75.12;102112.19;6182117;28;20047;-69
2021/03/17 08:07:44;;;;;;;4.30;1.17;;;;;;;3.63;73.61;102107.81;6180414;28;20046;-69
2021/03/17 08:10:47;;;;;;;10.88;1.30;;;;;;;3.74;71.39;102106.06;6184387;28;20050;-69
2021/03/17 08:13:50;;;;;;;7.32;1.40;;;;;;;3.93;70.96;102106.84;6182958;28;20126;-69
2021/03/17 08:16:52;;;;;;;10.80;1.50;;;;;;;3.92;73.06;102115.53;6184305;28;20050;-69
2021/03/17 08:20:12;;;;;;;9.88;1.17;;;;;;;3.99;68.30;102111.16;6181828;28;20082;-70
2021/03/17 08:23:40;;;;;;;5.57;1.17;;;;;;;3.93;67.69;102109.44;6179826;28;20066;-69
2021/03/17 08:26:46;;;;;;;8.98;1.35;;;;;;;4.07;68.51;102118.06;6182818;28;20050;-69
2021/03/17 08:29:49;;;;;;;16.73;2.03;;;;;;;4.24;67.84;102120.59;6184819;28;20046;-69
2021/03/17 08:32:59;;;;;;;10.73;1.20;;;;;;;4.24;68.52;102109.31;6195442;28;20050;-69
2021/03/17 08:36:10;;;;;;;7.10;1.55;;;;;;;4.26;68.93;102120.56;6183980;28;20051;-69
2021/03/17 08:39:11;;;;;;;6.00;1.00;;;;;;;4.26;67.36;102116.22;6171295;28;20489;-68
2021/03/17 08:42:26;;;;;;;7.88;1.25;;;;;;;4.35;66.08;102127.47;6192770;28;20109;-69
2021/03/17 08:45:27;;;;;;;10.82;2.35;;;;;;;4.18;68.73;102127.53;6197237;28;20141;-69
2021/03/17 08:48:57;;;;;;;11.55;1.90;;;;;;;4.24;66.42;102124.94;6199734;28;20138;-70
2021/03/17 08:52:04;;;;;;;5.50;1.02;;;;;;;4.27;65.25;102130.09;6201918;28;20054;-69
2021/03/17 08:55:11;;;;;;;12.38;1.50;;;;;;;4.15;66.61;102130.19;6201833;28;20526;-70
2021/03/17 08:58:22;;;;;;;10.10;1.23;;;;;;;4.41;66.59;102124.84;6201620;28;20484;-70
2021/03/17 09:01:31;;;;;;;6.65;1.23;;;;;;;4.38;66.61;102125.72;6201605;28;20050;-70
2021/03/17 09:04:44;;;;;;;;;;;;;;;4.43;67.92;102126.56;6202103;28;20057;-70
2021/03/17 09:08:01;;;;;;;16.45;1.60;;;;;;;4.44;69.48;102135.22;6201711;28;20009;-70
2021/03/17 09:11:02;;;;;;;10.00;1.85;;;;;;;4.51;70.14;102139.53;6200204;28;20050;-70
2021/03/17 09:14:05;;;;;;;8.77;1.55;;;;;;;4.65;67.24;102142.06;6200591;28;20058;-70
2021/03/17 09:17:23;;;;;;;8.05;2.17;;;;;;;4.38;67.26;102137.88;6201140;28;20089;-70
2021/03/17 09:20:28;;;;;;;11.75;1.17;;;;;;;4.58;62.83;102147.28;6199751;28;20142;-69
2021/03/17 09:23:36;;;;;;;6.28;1.00;;;;;;;4.53;62.64;102136.03;6200248;28;20046;-69
2021/03/17 09:26:37;;;;;;;9.95;1.40;;;;;;;4.31;65.42;102137.91;6191895;28;20053;-70
2021/03/17 09:29:39;;;;;;;8.27;1.17;;;;;;;4.38;66.06;102133.53;6191795;28;20137;-76
2021/03/17 09:32:40;;;;;;;6.28;0.93;;;;;;;4.45;64.71;102143.03;6213236;23;20053;-78
2021/03/17 09:35:45;;;;;;;8.80;2.40;;;;;;;4.54;64.49;102143.00;6192682;28;20050;-73
2021/03/17 09:38:48;;;;;;;6.75;1.48;;;;;;;4.68;68.66;102134.19;6200639;28;20097;-78
2021/03/17 09:41:49;;;;;;;7.30;1.40;;;;;;;5.16;64.32;102138.19;6188994;28;20050;-77
2021/03/17 09:44:56;;;;;;;8.25;1.52;;;;;;;5.23;63.89;102132.06;6195550;28;20043;-77
2021/03/17 09:47:58;;;;;;;7.28;2.30;;;;;;;5.25;62.92;102139.84;6191899;28;20416;-76
2021/03/17 09:51:00;;;;;;;6.28;0.82;;;;;;;5.16;61.26;102145.13;6191171;28;20427;-79
2021/03/17 09:54:04;;;;;;;10.38;1.85;;;;;;;4.87;64.96;102150.59;6200105;28;20055;-78
2021/03/17 09:57:06;;;;;;;5.93;1.05;;;;;;;4.67;62.90;102154.16;6197889;28;20059;-77
2021/03/17 10:00:09;;;;;;;3.30;1.13;;;;;;;4.59;63.24;102150.78;6190253;28;20109;-80
2021/03/17 10:03:12;;;;;;;6.35;1.13;;;;;;;4.58;64.33;102159.44;6199623;28;20050;-79
2021/03/17 10:06:14;;;;;;;6.22;1.27;;;;;;;4.65;63.29;102152.47;6199760;28;20396;-76
2021/03/17 10:09:15;;;;;;;7.75;1.70;;;;;;;4.82;63.10;102150.63;6200294;28;20057;-77
2021/03/17 10:12:18;;;;;;;10.02;1.10;;;;;;;4.69;65.89;102149.84;6175952;28;20046;-78
2021/03/17 10:15:21;;;;;;;9.98;1.25;;;;;;;4.88;65.77;102150.56;6175393;28;20108;-78
2021/03/17 10:18:23;;;;;;;11.13;1.40;;;;;;;5.37;63.85;102149.31;6175750;28;20050;-78
2021/03/17 10:21:26;;;;;;;14.02;2.28;;;;;;;5.33;64.22;102148.47;6174622;28;20496;-78
2021/03/17 10:24:37;;;;;;;5.05;1.40;;;;;;;5.44;65.42;102151.81;6175713;28;20054;-78
2021/03/17 10:27:41;;;;;;;8.20;1.40;;;;;;;5.63;61.70;102146.44;6175335;28;20057;-79
2021/03/17 10:30:46;;;;;;;11.52;1.02;;;;;;;5.20;64.67;102147.72;6175030;28;20055;-78
2021/03/17 10:33:48;;;;;;;12.77;1.83;;;;;;;5.16;64.44;102153.81;6175140;28;20054;-77
2021/03/17 10:36:51;;;;;;;8.60;1.20;;;;;;;5.08;65.64;102160.81;6175111;28;20504;-78
2021/03/17 10:39:52;;;;;;;9.48;2.08;;;;;;;5.42;63.23;102156.19;6178150;28;20069;-78
2021/03/17 10:42:55;;;;;;;13.05;1.23;;;;;;;5.58;65.37;102157.75;6198552;28;20057;-77
2021/03/17 10:46:03;;;;;;;7.38;2.25;;;;;;;6.05;62.88;102152.97;6198658;28;20410;-78
2021/03/17 10:49:06;;;;;;;8.25;1.60;;;;;;;6.18;60.28;102151.09;6175030;28;20081;-77
2021/03/17 10:52:08;;;;;;;12.80;1.33;;;;;;;6.22;61.54;102155.34;6174103;28;20058;-77
2021/03/17 10:55:11;;;;;;;8.40;1.65;;;;;;;6.60;60.73;102155.72;6174825;28;20050;-77
2021/03/17 10:58:14;;;;;;;7.07;1.00;;;;;;;6.69;57.18;102162.56;6174850;28;20090;-79
2021/03/17 11:01:22;;;;;;;8.23;2.22;;;;;;;6.16;60.05;102152.81;6174122;28;20138;-79
2021/03/17 11:04:23;;;;;;;7.22;1.27;;;;;;;6.19;58.65;102155.41;6174928;28;20058;-79
2021/03/17 11:07:24;;;;;;;10.02;1.83;;;;;;;6.16;58.08;102145.84;6174135;28;20504;-78
2021/03/17 11:10:53;;;;;;;4.30;0.80;;;;;;;5.76;59.88;102146.28;6182061;28;20233;-78
2021/03/17 11:13:54;;;;;;;5.60;1.17;;;;;;;5.79;60.56;102151.47;6196937;28;20455;-79
2021/03/17 11:17:03;;;;;;;5.18;1.30;;;;;;;5.50;60.88;102143.97;6196470;28;20096;-80
2021/03/17 11:20:05;;;;;;;3.50;1.30;;;;;;;5.69;59.30;102144.63;6198483;28;20077;-79
2021/03/17 11:23:14;;;;;;;7.05;1.27;;;;;;;5.91;58.99;102134.84;6198358;28;20050;-79
2021/03/17 11:26:22;;;;;;;7.85;1.48;;;;;;;5.79;60.76;102141.03;6198510;28;20677;-77
2021/03/17 11:29:25;;;;;;;5.78;1.15;;;;;;;6.38;59.47;102143.84;6198362;28;20526;-78
2021/03/17 11:32:30;;;;;;;6.30;1.52;;;;;;;6.49;60.44;102141.06;6197919;28;20056;-79
2021/03/17 11:35:30;;;;;;;5.35;1.27;;;;;;;7.11;56.95;102142.72;6198275;28;20080;-78
2021/03/17 11:38:32;;;;;;;6.85;1.40;;;;;;;7.51;59.82;102138.56;6198146;28;20424;-78
2021/03/17 11:41:34;;;;;;;7.00;1.58;;;;;;;7.80;56.51;102132.78;6181224;28;20054;-77
2021/03/17 11:44:35;;;;;;;4.95;1.30;;;;;;;7.72;58.17;102138.19;6173905;28;20047;-76
2021/03/17 11:47:37;;;;;;;4.15;1.27;;;;;;;7.84;55.36;102126.59;6186304;28;20129;-78
2021/03/17 11:50:41;;;;;;;5.78;1.30;;;;;;;7.65;58.81;102131.31;6197717;28;20058;-76
2021/03/17 11:53:43;;;;;;;7.40;1.30;;;;;;;7.31;57.93;102139.78;6197996;28;20054;-79
2021/03/17 11:56:44;;;;;;;5.55;1.50;;;;;;;7.09;60.26;102148.88;6181810;28;20061;-78
2021/03/17 11:59:45;;;;;;;8.45;2.10;;;;;;;7.16;56.94;102147.88;6184505;28;20042;-77
2021/03/17 12:02:46;;;;;;;6.57;1.30;;;;;;;7.09;58.53;102143.66;6193969;28;20140;-78
2021/03/17 12:05:48;;;;;;;6.80;1.40;;;;;;;7.57;56.98;102143.69;6197305;28;20105;-78
2021/03/17 12:08:49;;;;;;;6.40;1.38;;;;;;;8.27;55.47;102142.31;6197551;28;20042;-79
2021/03/17 12:11:50;;;;;;;4.93;1.27;;;;;;;8.46;55.25;102141.94;6176739;28;20468;-79
2021/03/17 12:14:51;;;;;;;5.68;1.55;;;;;;;8.74;53.99;102150.88;6173626;28;20061;-79
2021/03/17 12:17:53;;;;;;;5.93;1.50;;;;;;;8.94;55.25;102137.28;6172994;28;20078;-79
2021/03/17 12:20:54;;;;;;;27.95;13.95;;;;;;;9.24;52.37;102132.19;6172810;28;20051;-79
2021/03/17 12:23:54;;;;;;;5.15;1.20;;;;;;;9.35;49.42;102132.78;6177017;28;20098;-78
2021/03/17 12:26:55;;;;;;;5.03;1.17;;;;;;;8.89;51.02;102134.78;6200738;28;20050;-79
2021/03/17 12:29:56;;;;;;;6.90;1.80;;;;;;;9.13;52.43;102130.72;6202084;28;20050;-79
2021/03/17 12:32:58;;;;;;;6.63;1.42;;;;;;;8.99;54.72;102134.56;6194105;28;20050;-78
2021/03/17 12:35:59;;;;;;;6.10;1.30;;;;;;;9.31;51.89;102128.50;6178044;28;20087;-78
2021/03/17 12:39:00;;;;;;;4.28;1.30;;;;;;;9.50;50.62;102136.78;6177525;28;20090;-78
2021/03/17 12:42:01;;;;;;;5.53;1.50;;;;;;;9.52;49.80;102135.81;6197527;28;20050;-78
2021/03/17 12:45:04;;;;;;;5.20;1.30;;;;;;;9.05;52.24;102137.91;6201858;28;20050;-78
2021/03/17 12:48:07;;;;;;;7.10;1.48;;;;;;;9.37;51.62;102139.72;6201978;28;20478;-78
2021/03/17 12:51:07;;;;;;;7.10;1.20;;;;;;;9.31;48.58;102134.63;6200600;28;20108;-78
2021/03/17 12:54:08;;;;;;;3.50;1.30;;;;;;;8.33;52.86;102144.78;6201822;28;20054;-77
2021/03/17 12:57:10;;;;;;;4.32;1.20;;;;;;;7.96;55.16;102144.69;6201398;28;20146;-78
2021/03/17 13:00:13;;;;;;;3.63;1.35;;;;;;;7.97;56.83;102145.53;6201328;28;20434;-78
2021/03/17 13:03:15;;;;;;;4.28;1.65;;;;;;;8.86;56.30;102144.50;6200737;28;20050;-77
2021/03/17 13:06:16;;;;;;;6.53;1.20;;;;;;;9.69;50.23;102135.38;6201281;28;20057;-78
2021/03/17 13:09:17;;;;;;;4.85;1.30;;;;;;;9.36;51.93;102140.63;6201354;28;20050;-79
2021/03/17 13:12:18;;;;;;;6.63;2.15;;;;;;;8.66;53.86;102150.19;6176529;28;20559;-79
2021/03/17 13:15:20;;;;;;;3.83;1.40;;;;;;;8.43;53.87;102147.22;6180405;28;20053;-78
2021/03/17 13:18:22;;;;;;;3.83;1.30;;;;;;;8.44;52.14;102151.56;6200966;28;20042;-79
2021/03/17 13:21:23;;;;;;;6.07;1.13;;;;;;;8.84;54.65;102148.91;6200351;28;20097;-74
2021/03/17 13:24:24;;;;;;;5.30;1.17;;;;;;;9.30;51.00;102153.88;6200681;28;20407;-72
2021/03/17 13:27:25;;;;;;;9.43;1.27;;;;;;;9.65;51.27;102145.09;6201227;28;20061;-72
2021/03/17 13:30:26;;;;;;;5.53;1.30;;;;;;;9.96;52.28;102143.41;6200559;28;20058;-73
2021/03/17 13:33:28;;;;;;;4.38;1.48;;;;;;;10.50;49.09;102145.34;6199136;28;20058;-72
2021/03/17 13:36:29;;;;;;;3.00;1.02;;;;;;;10.70;47.94;102153.47;6200761;28;20046;-73
2021/03/17 13:39:30;;;;;;;5.25;1.98;;;;;;;10.50;49.35;102140.94;6200444;28;20481;-72
2021/03/17 13:42:30;;;;;;;4.95;1.15;;;;;;;10.62;47.65;102144.94;6199677;28;20133;-74
2021/03/17 13:45:32;;;;;;;3.40;1.58;;;;;;;10.09;48.55;102148.25;6200470;28;20050;-73
2021/03/17 13:48:33;;;;;;;3.85;1.20;;;;;;;9.97;48.42;102142.47;6200594;28;20047;-73
2021/03/17 13:51:35;;;;;;;6.43;1.10;;;;;;;10.24;47.90;102152.22;6199469;28;20494;-73
2021/03/17 13:54:36;;;;;;;4.20;1.20;;;;;;;9.88;48.44;102146.22;6200550;28;20058;-72
2021/03/17 13:57:37;;;;;;;4.72;1.10;;;;;;;9.78;46.57;102157.91;6200191;28;20046;-73
2021/03/17 14:00:38;;;;;;;3.75;1.05;;;;;;;8.88;52.39;102161.91;6200256;28;20054;-73
2021/03/17 14:03:40;;;;;;;5.55;1.75;;;;;;;8.65;52.09;102156.34;6197733;28;20527;-72
2021/03/17 14:06:41;;;;;;;6.70;1.67;;;;;;;8.45;53.69;102161.13;6200031;28;20522;-73
2021/03/17 14:09:42;;;;;;;2.00;1.08;;;;;;;8.49;54.37;102168.91;6200233;28;20128;-73
2021/03/17 14:12:43;;;;;;;7.10;1.30;;;;;;;7.86;57.95;102164.09;6199833;28;20050;-72
2021/03/17 14:15:44;;;;;;;7.53;1.52;;;;;;;7.66;60.50;102167.06;6200162;28;20050;-73
2021/03/17 14:18:45;;;;;;;3.08;1.10;;;;;;;7.68;61.12;102172.28;6198643;28;20042;-73
2021/03/17 14:21:46;;;;;;;5.00;1.40;;;;;;;7.92;57.52;102177.03;6199235;28;20054;-73